sensor_id;sensor_type;location;lat;lon;timestamp;temperature;humidity
24426;DHT22;12611;44.446;26.000;2023-07-13T00:01:09;27.20;79.60
24426;DHT22;12611;44.446;26.000;2023-07-13T00:03:38;27.20;79.60
24426;DHT22;12611;44.446;26.000;2023-07-13T00:06:09;27.20;80.40
24426;DHT22;12611;44.446;26.000;2023-07-13T00:08:38;27.10;80.30
24426;DHT22;12611;44.446;26.000;2023-07-13T00:11:07;27.10;80.30
24426;DHT22;12611;44.446;26.000;2023-07-13T00:13:37;27.10;80.40
24426;DHT22;12611;44.446;26.000;2023-07-13T00:16:07;27.10;80.50
24426;DHT22;12611;44.446;26.000;2023-07-13T00:18:36;27.00;80.10
24426;DHT22;12611;44.446;26.000;2023-07-13T00:21:05;27.10;80.00
24426;DHT22;12611;44.446;26.000;2023-07-13T00:23:36;27.00;80.00
24426;DHT22;12611;44.446;26.000;2023-07-13T00:26:06;27.00;79.80
24426;DHT22;12611;44.446;26.000;2023-07-13T00:28:36;27.00;80.00
24426;DHT22;12611;44.446;26.000;2023-07-13T00:31:05;27.00;80.10
24426;DHT22;12611;44.446;26.000;2023-07-13T00:33:35;27.00;80.50
24426;DHT22;12611;44.446;26.000;2023-07-13T00:36:04;26.90;80.20
24426;DHT22;12611;44.446;26.000;2023-07-13T00:38:34;26.90;80.20
24426;DHT22;12611;44.446;26.000;2023-07-13T00:41:03;26.90;80.00
24426;DHT22;12611;44.446;26.000;2023-07-13T00:43:32;26.90;80.10
24426;DHT22;12611;44.446;26.000;2023-07-13T00:46:22;26.90;80.20
24426;DHT22;12611;44.446;26.000;2023-07-13T00:48:53;26.80;80.20
24426;DHT22;12611;44.446;26.000;2023-07-13T00:51:27;26.80;80.30
24426;DHT22;12611;44.446;26.000;2023-07-13T00:54:00;26.80;80.30
24426;DHT22;12611;44.446;26.000;2023-07-13T00:56:33;26.80;80.20
24426;DHT22;12611;44.446;26.000;2023-07-13T00:59:03;26.70;80.40
24426;DHT22;12611;44.446;26.000;2023-07-13T01:01:32;26.70;80.80
24426;DHT22;12611;44.446;26.000;2023-07-13T01:04:00;26.70;80.80
24426;DHT22;12611;44.446;26.000;2023-07-13T01:06:29;26.70;80.80
24426;DHT22;12611;44.446;26.000;2023-07-13T01:08:59;26.70;80.80
24426;DHT22;12611;44.446;26.000;2023-07-13T01:11:28;26.70;80.80
24426;DHT22;12611;44.446;26.000;2023-07-13T01:13:56;26.60;80.70
24426;DHT22;12611;44.446;26.000;2023-07-13T01:16:32;26.60;80.80
24426;DHT22;12611;44.446;26.000;2023-07-13T01:19:01;26.60;81.10
24426;DHT22;12611;44.446;26.000;2023-07-13T01:21:33;26.60;81.40
24426;DHT22;12611;44.446;26.000;2023-07-13T01:24:01;26.50;81.40
24426;DHT22;12611;44.446;26.000;2023-07-13T01:26:30;26.50;81.30
24426;DHT22;12611;44.446;26.000;2023-07-13T01:28:58;26.50;81.60
24426;DHT22;12611;44.446;26.000;2023-07-13T01:31:26;26.50;82.20
24426;DHT22;12611;44.446;26.000;2023-07-13T01:33:54;26.50;81.80
24426;DHT22;12611;44.446;26.000;2023-07-13T01:36:24;26.50;81.80
24426;DHT22;12611;44.446;26.000;2023-07-13T01:38:54;26.40;81.80
24426;DHT22;12611;44.446;26.000;2023-07-13T01:41:22;26.40;81.90
24426;DHT22;12611;44.446;26.000;2023-07-13T01:43:51;26.40;82.30
24426;DHT22;12611;44.446;26.000;2023-07-13T01:46:19;26.40;82.40
24426;DHT22;12611;44.446;26.000;2023-07-13T01:48:50;26.40;82.50
24426;DHT22;12611;44.446;26.000;2023-07-13T01:51:19;26.40;82.50
24426;DHT22;12611;44.446;26.000;2023-07-13T01:53:48;26.40;82.50
24426;DHT22;12611;44.446;26.000;2023-07-13T01:56:18;26.40;82.50
24426;DHT22;12611;44.446;26.000;2023-07-13T01:58:47;26.30;82.40
24426;DHT22;12611;44.446;26.000;2023-07-13T02:01:16;26.30;82.40
24426;DHT22;12611;44.446;26.000;2023-07-13T02:03:44;26.30;82.50
24426;DHT22;12611;44.446;26.000;2023-07-13T02:06:13;26.30;82.60
24426;DHT22;12611;44.446;26.000;2023-07-13T02:08:42;26.30;82.70
24426;DHT22;12611;44.446;26.000;2023-07-13T02:11:10;26.30;83.10
24426;DHT22;12611;44.446;26.000;2023-07-13T02:13:41;26.20;83.10
24426;DHT22;12611;44.446;26.000;2023-07-13T02:16:09;26.30;83.40
24426;DHT22;12611;44.446;26.000;2023-07-13T02:18:38;26.20;84.80
24426;DHT22;12611;44.446;26.000;2023-07-13T02:21:07;26.20;83.80
24426;DHT22;12611;44.446;26.000;2023-07-13T02:23:35;26.20;84.10
24426;DHT22;12611;44.446;26.000;2023-07-13T02:26:04;26.20;85.60
24426;DHT22;12611;44.446;26.000;2023-07-13T02:28:32;26.20;87.10
24426;DHT22;12611;44.446;26.000;2023-07-13T02:31:10;26.20;87.70
24426;DHT22;12611;44.446;26.000;2023-07-13T02:33:39;26.10;88.20
24426;DHT22;12611;44.446;26.000;2023-07-13T02:36:08;26.10;88.60
24426;DHT22;12611;44.446;26.000;2023-07-13T02:38:37;26.10;88.70
24426;DHT22;12611;44.446;26.000;2023-07-13T02:41:07;26.10;88.70
24426;DHT22;12611;44.446;26.000;2023-07-13T02:43:37;26.00;88.50
24426;DHT22;12611;44.446;26.000;2023-07-13T02:46:05;26.10;88.30
24426;DHT22;12611;44.446;26.000;2023-07-13T02:48:38;26.10;88.50
24426;DHT22;12611;44.446;26.000;2023-07-13T02:51:07;26.10;88.40
24426;DHT22;12611;44.446;26.000;2023-07-13T02:53:37;26.10;88.00
24426;DHT22;12611;44.446;26.000;2023-07-13T02:56:06;26.10;87.60
24426;DHT22;12611;44.446;26.000;2023-07-13T02:58:35;26.10;87.50
24426;DHT22;12611;44.446;26.000;2023-07-13T03:01:10;26.10;87.10
24426;DHT22;12611;44.446;26.000;2023-07-13T03:03:40;26.10;87.80
24426;DHT22;12611;44.446;26.000;2023-07-13T03:06:08;26.10;88.00
24426;DHT22;12611;44.446;26.000;2023-07-13T03:08:37;26.10;87.60
24426;DHT22;12611;44.446;26.000;2023-07-13T03:11:08;26.10;87.30
24426;DHT22;12611;44.446;26.000;2023-07-13T03:13:38;26.10;87.50
24426;DHT22;12611;44.446;26.000;2023-07-13T03:16:07;26.10;88.20
24426;DHT22;12611;44.446;26.000;2023-07-13T03:18:38;26.10;87.20
24426;DHT22;12611;44.446;26.000;2023-07-13T03:21:08;26.10;87.20
24426;DHT22;12611;44.446;26.000;2023-07-13T03:23:36;26.10;87.00
24426;DHT22;12611;44.446;26.000;2023-07-13T03:26:06;26.10;86.90
24426;DHT22;12611;44.446;26.000;2023-07-13T03:28:35;26.10;86.90
24426;DHT22;12611;44.446;26.000;2023-07-13T03:31:06;26.10;86.70
24426;DHT22;12611;44.446;26.000;2023-07-13T03:33:35;26.10;86.60
24426;DHT22;12611;44.446;26.000;2023-07-13T03:36:04;26.10;86.50
24426;DHT22;12611;44.446;26.000;2023-07-13T03:38:34;26.20;86.30
24426;DHT22;12611;44.446;26.000;2023-07-13T03:41:02;26.30;86.40
24426;DHT22;12611;44.446;26.000;2023-07-13T03:43:31;26.30;86.40
24426;DHT22;12611;44.446;26.000;2023-07-13T03:45:59;26.30;86.80
24426;DHT22;12611;44.446;26.000;2023-07-13T03:48:28;26.20;87.00
24426;DHT22;12611;44.446;26.000;2023-07-13T03:50:56;26.30;87.20
24426;DHT22;12611;44.446;26.000;2023-07-13T03:53:24;26.30;87.10
24426;DHT22;12611;44.446;26.000;2023-07-13T03:55:54;26.30;86.90
24426;DHT22;12611;44.446;26.000;2023-07-13T03:58:31;26.30;87.30
24426;DHT22;12611;44.446;26.000;2023-07-13T04:01:00;26.40;87.40
24426;DHT22;12611;44.446;26.000;2023-07-13T04:03:29;26.40;87.20
24426;DHT22;12611;44.446;26.000;2023-07-13T04:06:00;26.40;87.20
24426;DHT22;12611;44.446;26.000;2023-07-13T04:08:30;26.40;87.10
24426;DHT22;12611;44.446;26.000;2023-07-13T04:11:01;26.50;87.20
24426;DHT22;12611;44.446;26.000;2023-07-13T04:13:30;26.50;87.10
24426;DHT22;12611;44.446;26.000;2023-07-13T04:15:58;26.50;87.00
24426;DHT22;12611;44.446;26.000;2023-07-13T04:18:27;26.60;86.90
24426;DHT22;12611;44.446;26.000;2023-07-13T04:20:55;26.60;87.20
24426;DHT22;12611;44.446;26.000;2023-07-13T04:23:24;26.60;87.10
24426;DHT22;12611;44.446;26.000;2023-07-13T04:25:53;26.60;86.90
24426;DHT22;12611;44.446;26.000;2023-07-13T04:28:24;26.70;86.70
24426;DHT22;12611;44.446;26.000;2023-07-13T04:30:53;26.70;87.60
24426;DHT22;12611;44.446;26.000;2023-07-13T04:33:21;26.80;86.80
24426;DHT22;12611;44.446;26.000;2023-07-13T04:35:50;26.90;86.60
24426;DHT22;12611;44.446;26.000;2023-07-13T04:38:24;26.90;86.40
24426;DHT22;12611;44.446;26.000;2023-07-13T04:40:55;27.00;86.30
24426;DHT22;12611;44.446;26.000;2023-07-13T04:43:26;27.00;86.30
24426;DHT22;12611;44.446;26.000;2023-07-13T04:45:54;27.10;86.20
24426;DHT22;12611;44.446;26.000;2023-07-13T04:48:23;27.10;86.00
24426;DHT22;12611;44.446;26.000;2023-07-13T04:50:56;27.20;86.00
24426;DHT22;12611;44.446;26.000;2023-07-13T04:53:25;27.20;85.80
24426;DHT22;12611;44.446;26.000;2023-07-13T04:55:54;27.20;85.60
24426;DHT22;12611;44.446;26.000;2023-07-13T04:58:25;27.30;85.50
24426;DHT22;12611;44.446;26.000;2023-07-13T05:00:59;27.30;85.40
24426;DHT22;12611;44.446;26.000;2023-07-13T05:03:28;27.40;85.30
24426;DHT22;12611;44.446;26.000;2023-07-13T05:05:58;27.40;85.20
24426;DHT22;12611;44.446;26.000;2023-07-13T05:08:32;27.40;85.20
24426;DHT22;12611;44.446;26.000;2023-07-13T05:11:01;27.50;85.30
24426;DHT22;12611;44.446;26.000;2023-07-13T05:13:31;27.60;85.20
24426;DHT22;12611;44.446;26.000;2023-07-13T05:16:01;27.60;85.20
24426;DHT22;12611;44.446;26.000;2023-07-13T05:18:30;27.60;85.90
24426;DHT22;12611;44.446;26.000;2023-07-13T05:21:01;27.70;85.00
24426;DHT22;12611;44.446;26.000;2023-07-13T05:23:31;27.70;84.90
24426;DHT22;12611;44.446;26.000;2023-07-13T05:25:59;27.70;84.70
24426;DHT22;12611;44.446;26.000;2023-07-13T05:28:29;27.80;84.80
24426;DHT22;12611;44.446;26.000;2023-07-13T05:30:59;27.90;84.70
24426;DHT22;12611;44.446;26.000;2023-07-13T05:33:28;27.90;84.60
24426;DHT22;12611;44.446;26.000;2023-07-13T05:35:56;27.90;84.70
24426;DHT22;12611;44.446;26.000;2023-07-13T05:38:33;28.00;84.70
24426;DHT22;12611;44.446;26.000;2023-07-13T05:41:01;28.00;84.70
24426;DHT22;12611;44.446;26.000;2023-07-13T05:43:32;28.00;84.60
24426;DHT22;12611;44.446;26.000;2023-07-13T05:46:02;28.10;84.60
24426;DHT22;12611;44.446;26.000;2023-07-13T05:48:30;28.20;84.50
24426;DHT22;12611;44.446;26.000;2023-07-13T05:50:58;28.20;84.30
24426;DHT22;12611;44.446;26.000;2023-07-13T05:53:27;28.30;84.30
24426;DHT22;12611;44.446;26.000;2023-07-13T05:55:55;28.30;84.10
24426;DHT22;12611;44.446;26.000;2023-07-13T05:58:28;28.40;84.00
24426;DHT22;12611;44.446;26.000;2023-07-13T06:01:03;28.50;83.90
24426;DHT22;12611;44.446;26.000;2023-07-13T06:03:32;28.50;83.60
24426;DHT22;12611;44.446;26.000;2023-07-13T06:06:01;28.60;83.50
24426;DHT22;12611;44.446;26.000;2023-07-13T06:08:30;28.70;83.30
24426;DHT22;12611;44.446;26.000;2023-07-13T06:11:05;28.70;83.00
24426;DHT22;12611;44.446;26.000;2023-07-13T06:13:34;28.80;82.80
24426;DHT22;12611;44.446;26.000;2023-07-13T06:16:05;28.80;82.50
24426;DHT22;12611;44.446;26.000;2023-07-13T06:18:34;28.90;82.50
24426;DHT22;12611;44.446;26.000;2023-07-13T06:21:06;29.00;82.20
24426;DHT22;12611;44.446;26.000;2023-07-13T06:23:36;29.00;82.00
24426;DHT22;12611;44.446;26.000;2023-07-13T06:26:06;29.10;81.70
24426;DHT22;12611;44.446;26.000;2023-07-13T06:28:35;29.10;81.30
24426;DHT22;12611;44.446;26.000;2023-07-13T06:31:07;29.20;81.30
24426;DHT22;12611;44.446;26.000;2023-07-13T06:33:37;29.20;81.00
24426;DHT22;12611;44.446;26.000;2023-07-13T06:36:07;29.30;80.90
24426;DHT22;12611;44.446;26.000;2023-07-13T06:38:36;29.40;80.90
24426;DHT22;12611;44.446;26.000;2023-07-13T06:41:06;29.40;80.80
24426;DHT22;12611;44.446;26.000;2023-07-13T06:43:35;29.50;80.80
24426;DHT22;12611;44.446;26.000;2023-07-13T06:46:03;29.50;80.50
24426;DHT22;12611;44.446;26.000;2023-07-13T06:48:33;29.60;80.50
24426;DHT22;12611;44.446;26.000;2023-07-13T06:51:03;29.60;80.00
24426;DHT22;12611;44.446;26.000;2023-07-13T06:53:31;29.70;79.70
24426;DHT22;12611;44.446;26.000;2023-07-13T06:56:00;29.80;79.60
24426;DHT22;12611;44.446;26.000;2023-07-13T06:58:28;29.90;80.30
24426;DHT22;12611;44.446;26.000;2023-07-13T07:00:57;29.90;79.30
24426;DHT22;12611;44.446;26.000;2023-07-13T07:03:26;30.00;79.30
24426;DHT22;12611;44.446;26.000;2023-07-13T07:06:00;30.00;79.00
24426;DHT22;12611;44.446;26.000;2023-07-13T07:08:29;30.10;78.80
24426;DHT22;12611;44.446;26.000;2023-07-13T07:10:57;30.20;78.80
24426;DHT22;12611;44.446;26.000;2023-07-13T07:13:25;30.20;78.50
24426;DHT22;12611;44.446;26.000;2023-07-13T07:15:55;30.30;78.30
24426;DHT22;12611;44.446;26.000;2023-07-13T07:18:23;30.40;78.40
24426;DHT22;12611;44.446;26.000;2023-07-13T07:20:52;30.40;78.00
24426;DHT22;12611;44.446;26.000;2023-07-13T07:23:22;30.50;78.00
24426;DHT22;12611;44.446;26.000;2023-07-13T07:25:50;30.50;77.90
24426;DHT22;12611;44.446;26.000;2023-07-13T07:28:19;30.60;77.80
24426;DHT22;12611;44.446;26.000;2023-07-13T07:30:52;30.60;77.50
24426;DHT22;12611;44.446;26.000;2023-07-13T07:33:41;30.70;77.40
24426;DHT22;12611;44.446;26.000;2023-07-13T07:36:10;30.70;77.40
24426;DHT22;12611;44.446;26.000;2023-07-13T07:38:43;30.80;77.00
24426;DHT22;12611;44.446;26.000;2023-07-13T07:41:13;30.80;77.10
24426;DHT22;12611;44.446;26.000;2023-07-13T07:43:47;31.00;77.20
24426;DHT22;12611;44.446;26.000;2023-07-13T07:46:15;31.00;76.90
24426;DHT22;12611;44.446;26.000;2023-07-13T07:48:44;31.00;76.90
24426;DHT22;12611;44.446;26.000;2023-07-13T07:51:14;31.10;77.00
24426;DHT22;12611;44.446;26.000;2023-07-13T07:53:45;31.10;76.90
24426;DHT22;12611;44.446;26.000;2023-07-13T07:56:13;31.20;76.80
24426;DHT22;12611;44.446;26.000;2023-07-13T07:58:46;31.20;76.80
24426;DHT22;12611;44.446;26.000;2023-07-13T08:01:17;31.30;76.90
24426;DHT22;12611;44.446;26.000;2023-07-13T08:03:48;31.40;76.80
24426;DHT22;12611;44.446;26.000;2023-07-13T08:06:20;31.40;76.60
24426;DHT22;12611;44.446;26.000;2023-07-13T08:08:53;31.40;76.60
24426;DHT22;12611;44.446;26.000;2023-07-13T08:11:22;31.50;76.30
24426;DHT22;12611;44.446;26.000;2023-07-13T08:13:53;31.50;76.10
24426;DHT22;12611;44.446;26.000;2023-07-13T08:16:22;31.60;76.10
24426;DHT22;12611;44.446;26.000;2023-07-13T08:18:51;31.60;76.20
24426;DHT22;12611;44.446;26.000;2023-07-13T08:21:19;31.70;75.70
24426;DHT22;12611;44.446;26.000;2023-07-13T08:23:49;31.70;75.80
24426;DHT22;12611;44.446;26.000;2023-07-13T08:26:19;31.80;75.50
24426;DHT22;12611;44.446;26.000;2023-07-13T08:28:49;31.80;75.30
24426;DHT22;12611;44.446;26.000;2023-07-13T08:31:17;31.80;75.10
24426;DHT22;12611;44.446;26.000;2023-07-13T08:33:45;31.90;75.10
24426;DHT22;12611;44.446;26.000;2023-07-13T08:36:14;31.90;75.10
24426;DHT22;12611;44.446;26.000;2023-07-13T08:38:43;32.00;75.30
24426;DHT22;12611;44.446;26.000;2023-07-13T08:41:13;32.10;75.20
24426;DHT22;12611;44.446;26.000;2023-07-13T08:43:49;32.10;75.10
24426;DHT22;12611;44.446;26.000;2023-07-13T08:46:23;32.20;75.10
24426;DHT22;12611;44.446;26.000;2023-07-13T08:48:57;32.20;75.40
24426;DHT22;12611;44.446;26.000;2023-07-13T08:51:38;32.30;75.00
24426;DHT22;12611;44.446;26.000;2023-07-13T08:54:18;32.40;74.10
24426;DHT22;12611;44.446;26.000;2023-07-13T08:56:48;32.30;72.40
24426;DHT22;12611;44.446;26.000;2023-07-13T08:59:24;32.30;72.90
24426;DHT22;12611;44.446;26.000;2023-07-13T09:02:18;32.40;73.30
24426;DHT22;12611;44.446;26.000;2023-07-13T09:04:53;32.50;73.40
24426;DHT22;12611;44.446;26.000;2023-07-13T09:07:29;32.60;73.40
24426;DHT22;12611;44.446;26.000;2023-07-13T09:10:08;32.60;73.30
24426;DHT22;12611;44.446;26.000;2023-07-13T09:12:45;32.70;72.90
24426;DHT22;12611;44.446;26.000;2023-07-13T09:15:27;32.70;72.90
24426;DHT22;12611;44.446;26.000;2023-07-13T09:18:02;32.80;73.10
24426;DHT22;12611;44.446;26.000;2023-07-13T09:20:34;32.80;73.20
24426;DHT22;12611;44.446;26.000;2023-07-13T09:23:16;32.90;72.70
24426;DHT22;12611;44.446;26.000;2023-07-13T09:25:48;32.90;71.90
24426;DHT22;12611;44.446;26.000;2023-07-13T09:28:20;32.90;70.20
24426;DHT22;12611;44.446;26.000;2023-07-13T09:30:58;33.00;70.00
24426;DHT22;12611;44.446;26.000;2023-07-13T09:33:29;33.20;70.00
24426;DHT22;12611;44.446;26.000;2023-07-13T09:35:58;33.10;69.30
24426;DHT22;12611;44.446;26.000;2023-07-13T09:38:29;33.20;69.70
24426;DHT22;12611;44.446;26.000;2023-07-13T09:41:08;33.20;69.10
24426;DHT22;12611;44.446;26.000;2023-07-13T09:44:09;33.40;69.10
24426;DHT22;12611;44.446;26.000;2023-07-13T09:46:43;33.40;69.10
24426;DHT22;12611;44.446;26.000;2023-07-13T09:49:13;33.50;69.50
24426;DHT22;12611;44.446;26.000;2023-07-13T09:51:42;33.50;69.20
24426;DHT22;12611;44.446;26.000;2023-07-13T09:54:19;33.60;68.60
24426;DHT22;12611;44.446;26.000;2023-07-13T09:56:48;33.60;68.40
24426;DHT22;12611;44.446;26.000;2023-07-13T09:59:22;33.70;68.50
24426;DHT22;12611;44.446;26.000;2023-07-13T10:01:53;33.70;68.00
24426;DHT22;12611;44.446;26.000;2023-07-13T10:04:26;33.80;67.90
24426;DHT22;12611;44.446;26.000;2023-07-13T10:07:05;33.90;67.80
24426;DHT22;12611;44.446;26.000;2023-07-13T10:09:54;33.90;66.10
24426;DHT22;12611;44.446;26.000;2023-07-13T10:12:24;34.00;65.90
24426;DHT22;12611;44.446;26.000;2023-07-13T10:14:55;34.10;65.50
24426;DHT22;12611;44.446;26.000;2023-07-13T10:17:35;34.20;65.60
24426;DHT22;12611;44.446;26.000;2023-07-13T10:20:05;34.30;65.80
24426;DHT22;12611;44.446;26.000;2023-07-13T10:22:44;34.30;65.00
24426;DHT22;12611;44.446;26.000;2023-07-13T10:25:16;34.40;65.30
24426;DHT22;12611;44.446;26.000;2023-07-13T10:27:45;34.40;65.50
24426;DHT22;12611;44.446;26.000;2023-07-13T10:30:19;34.40;64.80
24426;DHT22;12611;44.446;26.000;2023-07-13T10:32:51;34.50;65.00
24426;DHT22;12611;44.446;26.000;2023-07-13T10:35:22;34.60;65.40
24426;DHT22;12611;44.446;26.000;2023-07-13T10:37:53;34.60;65.10
24426;DHT22;12611;44.446;26.000;2023-07-13T10:40:28;34.60;65.10
24426;DHT22;12611;44.446;26.000;2023-07-13T10:43:00;34.70;64.00
24426;DHT22;12611;44.446;26.000;2023-07-13T10:45:33;34.70;62.40
24426;DHT22;12611;44.446;26.000;2023-07-13T10:48:05;34.80;62.60
24426;DHT22;12611;44.446;26.000;2023-07-13T10:50:42;34.80;62.30
24426;DHT22;12611;44.446;26.000;2023-07-13T10:53:20;34.80;59.90
24426;DHT22;12611;44.446;26.000;2023-07-13T10:55:59;34.90;60.00
24426;DHT22;12611;44.446;26.000;2023-07-13T10:58:33;34.90;59.70
24426;DHT22;12611;44.446;26.000;2023-07-13T11:01:08;35.00;59.40
24426;DHT22;12611;44.446;26.000;2023-07-13T11:03:48;35.10;59.30
24426;DHT22;12611;44.446;26.000;2023-07-13T11:06:33;35.20;59.10
24426;DHT22;12611;44.446;26.000;2023-07-13T11:09:19;35.20;59.00
24426;DHT22;12611;44.446;26.000;2023-07-13T11:11:48;35.30;59.30
24426;DHT22;12611;44.446;26.000;2023-07-13T11:14:30;35.40;59.70
24426;DHT22;12611;44.446;26.000;2023-07-13T11:16:58;35.40;59.70
24426;DHT22;12611;44.446;26.000;2023-07-13T11:19:51;35.50;60.20
24426;DHT22;12611;44.446;26.000;2023-07-13T11:22:25;35.50;60.00
24426;DHT22;12611;44.446;26.000;2023-07-13T11:25:01;35.60;60.20
24426;DHT22;12611;44.446;26.000;2023-07-13T11:27:38;35.60;60.10
24426;DHT22;12611;44.446;26.000;2023-07-13T11:30:32;35.70;59.80
24426;DHT22;12611;44.446;26.000;2023-07-13T11:33:09;35.70;59.00
24426;DHT22;12611;44.446;26.000;2023-07-13T11:35:57;35.70;57.80
24426;DHT22;12611;44.446;26.000;2023-07-13T11:38:33;35.80;58.30
24426;DHT22;12611;44.446;26.000;2023-07-13T11:41:07;35.80;57.90
24426;DHT22;12611;44.446;26.000;2023-07-13T11:43:43;35.90;57.80
24426;DHT22;12611;44.446;26.000;2023-07-13T11:46:13;36.00;57.90
24426;DHT22;12611;44.446;26.000;2023-07-13T11:48:44;36.00;57.80
24426;DHT22;12611;44.446;26.000;2023-07-13T11:51:20;36.20;57.70
24426;DHT22;12611;44.446;26.000;2023-07-13T11:53:51;36.20;58.00
24426;DHT22;12611;44.446;26.000;2023-07-13T11:56:24;36.30;57.60
24426;DHT22;12611;44.446;26.000;2023-07-13T11:58:56;36.40;57.50
24426;DHT22;12611;44.446;26.000;2023-07-13T12:01:28;36.40;57.20
24426;DHT22;12611;44.446;26.000;2023-07-13T12:04:01;36.40;56.70
24426;DHT22;12611;44.446;26.000;2023-07-13T12:06:34;36.40;56.00
24426;DHT22;12611;44.446;26.000;2023-07-13T12:09:12;36.50;55.90
24426;DHT22;12611;44.446;26.000;2023-07-13T12:11:43;36.50;55.80
24426;DHT22;12611;44.446;26.000;2023-07-13T12:14:18;36.60;56.10
24426;DHT22;12611;44.446;26.000;2023-07-13T12:16:50;36.60;56.00
24426;DHT22;12611;44.446;26.000;2023-07-13T12:19:21;36.70;56.10
24426;DHT22;12611;44.446;26.000;2023-07-13T12:21:54;36.70;54.80
24426;DHT22;12611;44.446;26.000;2023-07-13T12:24:25;36.70;55.20
24426;DHT22;12611;44.446;26.000;2023-07-13T12:26:59;36.70;55.00
24426;DHT22;12611;44.446;26.000;2023-07-13T12:29:31;36.60;54.80
24426;DHT22;12611;44.446;26.000;2023-07-13T12:32:00;36.70;55.10
24426;DHT22;12611;44.446;26.000;2023-07-13T12:34:28;36.70;55.10
24426;DHT22;12611;44.446;26.000;2023-07-13T12:37:00;36.90;55.00
24426;DHT22;12611;44.446;26.000;2023-07-13T12:39:34;36.90;53.10
24426;DHT22;12611;44.446;26.000;2023-07-13T12:45:12;37.20;53.00
24426;DHT22;12611;44.446;26.000;2023-07-13T12:47:52;37.20;53.60
24426;DHT22;12611;44.446;26.000;2023-07-13T12:50:24;37.20;53.40
24426;DHT22;12611;44.446;26.000;2023-07-13T12:53:05;37.20;52.90
24426;DHT22;12611;44.446;26.000;2023-07-13T12:55:41;37.30;53.20
24426;DHT22;12611;44.446;26.000;2023-07-13T12:58:20;37.40;53.60
24426;DHT22;12611;44.446;26.000;2023-07-13T13:00:50;37.50;53.40
24426;DHT22;12611;44.446;26.000;2023-07-13T13:03:24;37.50;53.30
24426;DHT22;12611;44.446;26.000;2023-07-13T13:05:58;37.50;53.00
24426;DHT22;12611;44.446;26.000;2023-07-13T13:08:32;37.50;52.50
24426;DHT22;12611;44.446;26.000;2023-07-13T13:11:01;37.60;52.60
24426;DHT22;12611;44.446;26.000;2023-07-13T13:13:29;37.50;51.90
24426;DHT22;12611;44.446;26.000;2023-07-13T13:16:02;37.40;50.30
24426;DHT22;12611;44.446;26.000;2023-07-13T13:18:33;37.50;51.10
24426;DHT22;12611;44.446;26.000;2023-07-13T13:21:02;37.50;51.50
24426;DHT22;12611;44.446;26.000;2023-07-13T13:23:32;37.60;51.70
24426;DHT22;12611;44.446;26.000;2023-07-13T13:26:05;37.60;50.80
24426;DHT22;12611;44.446;26.000;2023-07-13T13:28:42;37.70;51.30
24426;DHT22;12611;44.446;26.000;2023-07-13T13:31:16;37.60;51.00
24426;DHT22;12611;44.446;26.000;2023-07-13T13:33:52;37.60;50.80
24426;DHT22;12611;44.446;26.000;2023-07-13T13:36:30;37.70;51.30
24426;DHT22;12611;44.446;26.000;2023-07-13T13:39:10;37.70;50.20
24426;DHT22;12611;44.446;26.000;2023-07-13T13:41:53;37.70;50.20
24426;DHT22;12611;44.446;26.000;2023-07-13T13:44:36;37.80;50.20
24426;DHT22;12611;44.446;26.000;2023-07-13T13:47:07;37.80;50.50
24426;DHT22;12611;44.446;26.000;2023-07-13T13:49:49;37.80;50.40
24426;DHT22;12611;44.446;26.000;2023-07-13T13:52:19;37.80;50.50
24426;DHT22;12611;44.446;26.000;2023-07-13T13:54:49;37.80;50.20
24426;DHT22;12611;44.446;26.000;2023-07-13T13:57:23;37.70;49.30
24426;DHT22;12611;44.446;26.000;2023-07-13T13:59:54;37.80;49.50
24426;DHT22;12611;44.446;26.000;2023-07-13T14:02:26;37.80;49.30
24426;DHT22;12611;44.446;26.000;2023-07-13T14:04:57;37.80;49.40
24426;DHT22;12611;44.446;26.000;2023-07-13T14:07:29;37.80;49.30
24426;DHT22;12611;44.446;26.000;2023-07-13T14:10:00;37.90;49.50
24426;DHT22;12611;44.446;26.000;2023-07-13T14:12:29;38.10;49.60
24426;DHT22;12611;44.446;26.000;2023-07-13T14:14:57;38.20;49.90
24426;DHT22;12611;44.446;26.000;2023-07-13T14:17:27;38.20;49.60
24426;DHT22;12611;44.446;26.000;2023-07-13T14:19:56;38.30;49.10
24426;DHT22;12611;44.446;26.000;2023-07-13T14:22:25;38.30;48.40
24426;DHT22;12611;44.446;26.000;2023-07-13T14:24:55;38.30;47.70
24426;DHT22;12611;44.446;26.000;2023-07-13T14:27:27;38.30;47.90
24426;DHT22;12611;44.446;26.000;2023-07-13T14:29:55;38.20;47.90
24426;DHT22;12611;44.446;26.000;2023-07-13T14:32:24;38.40;48.10
24426;DHT22;12611;44.446;26.000;2023-07-13T14:34:53;38.80;47.80
24426;DHT22;12611;44.446;26.000;2023-07-13T14:37:21;39.20;47.90
24426;DHT22;12611;44.446;26.000;2023-07-13T14:39:51;39.30;48.20
24426;DHT22;12611;44.446;26.000;2023-07-13T14:42:20;39.30;48.50
24426;DHT22;12611;44.446;26.000;2023-07-13T14:44:50;39.30;48.60
24426;DHT22;12611;44.446;26.000;2023-07-13T14:47:18;39.40;48.80
24426;DHT22;12611;44.446;26.000;2023-07-13T14:49:47;39.40;48.70
24426;DHT22;12611;44.446;26.000;2023-07-13T14:52:18;39.30;47.30
24426;DHT22;12611;44.446;26.000;2023-07-13T14:54:47;39.10;47.30
24426;DHT22;12611;44.446;26.000;2023-07-13T14:57:17;39.00;46.80
24426;DHT22;12611;44.446;26.000;2023-07-13T14:59:46;39.00;46.90
24426;DHT22;12611;44.446;26.000;2023-07-13T15:02:21;38.90;47.30
24426;DHT22;12611;44.446;26.000;2023-07-13T15:04:51;38.90;47.60
24426;DHT22;12611;44.446;26.000;2023-07-13T15:07:20;38.80;47.60
24426;DHT22;12611;44.446;26.000;2023-07-13T15:09:59;38.80;47.80
24426;DHT22;12611;44.446;26.000;2023-07-13T15:12:38;38.80;47.30
24426;DHT22;12611;44.446;26.000;2023-07-13T15:15:10;38.60;46.60
24426;DHT22;12611;44.446;26.000;2023-07-13T15:17:47;38.60;46.50
24426;DHT22;12611;44.446;26.000;2023-07-13T15:20:19;38.60;46.50
24426;DHT22;12611;44.446;26.000;2023-07-13T15:22:50;38.50;46.90
24426;DHT22;12611;44.446;26.000;2023-07-13T15:25:20;38.50;47.30
24426;DHT22;12611;44.446;26.000;2023-07-13T15:27:49;38.50;47.40
24426;DHT22;12611;44.446;26.000;2023-07-13T15:30:18;38.50;47.50
24426;DHT22;12611;44.446;26.000;2023-07-13T15:32:48;38.50;47.10
24426;DHT22;12611;44.446;26.000;2023-07-13T15:35:19;38.50;47.30
24426;DHT22;12611;44.446;26.000;2023-07-13T15:37:47;38.50;47.10
24426;DHT22;12611;44.446;26.000;2023-07-13T15:40:17;38.40;47.00
24426;DHT22;12611;44.446;26.000;2023-07-13T15:42:48;38.50;46.70
24426;DHT22;12611;44.446;26.000;2023-07-13T15:45:18;38.50;47.10